CheckWX is a tool to help pilots better visualize weather data.  It is not intended as a substitute for an official pre-flight weather briefing.

09:01:17 UTC

KFPK METAR
Fitch H Beach Airport
Charlotte, Michigan, USA
Current

25 mins ago

KFPK 260836Z AUTO 01009G14KT 10SM OVC013 M02/M04 A2998 RMK AO2 T10211043
Observed
Feb-26 @ 08:36 UTC
Wind
  • 010° at 9 KTS
  • Gusting to 14 KTS
Visibility
10 SM
Flight Rules
MVFR
Cloud Levels
  • Overcast at 1,300' AGL
Temperature
-2°C / 28°F
Dewpoint
-4°C / 25°F
Humidity
86%
Altimeter
29.98" Hg
Pressure
1015.22 hPa
Previous

46 mins ago

KFPK 260815Z AUTO 36008KT 10SM BKN013 OVC040 M02/M04 A2999 RMK AO2 T10211043
Observed
Feb-26 @ 08:15 UTC
Wind
  • 360° at 8 KTS
Visibility
10 SM
Flight Rules
MVFR
Cloud Levels
  • Broken at 1,300' AGL
  • Overcast at 4,000' AGL
Temperature
-2°C / 28°F
Dewpoint
-4°C / 25°F
Humidity
86%
Altimeter
29.99" Hg
Pressure
1015.62 hPa
Previous

1 hour ago

KFPK 260755Z AUTO 01009KT 10SM SCT013 OVC043 M02/M04 A2999 RMK AO2 T10211043
Observed
Feb-26 @ 07:55 UTC
Wind
  • 010° at 9 KTS
Visibility
10 SM
Flight Rules
VFR
Cloud Levels
  • Scattered at 1,300' AGL
  • Overcast at 4,300' AGL
Temperature
-2°C / 28°F
Dewpoint
-4°C / 25°F
Humidity
86%
Altimeter
29.99" Hg
Pressure
1015.62 hPa